createdAt,value
2019-03-10T00:00:52.867Z,5.84
2019-03-10T00:03:22.260Z,5.95
2019-03-10T00:05:50.177Z,6.04
2019-03-10T00:08:17.909Z,6.00
2019-03-10T00:10:45.498Z,5.90
2019-03-10T00:13:13.126Z,5.97
2019-03-10T00:15:40.685Z,5.99
2019-03-10T00:18:08.482Z,5.89
2019-03-10T00:20:36.125Z,5.76
2019-03-10T00:23:03.822Z,5.67
2019-03-10T00:25:31.496Z,5.59
2019-03-10T00:27:59.119Z,5.40
2019-03-10T00:30:26.729Z,5.28
2019-03-10T00:32:54.394Z,5.37
2019-03-10T00:35:22.090Z,5.31
2019-03-10T00:37:49.785Z,5.31
2019-03-10T00:40:59.526Z,5.42
2019-03-10T00:43:59.709Z,5.40
2019-03-10T00:47:03.785Z,5.35
2019-03-10T00:50:12.977Z,5.48
2019-03-10T00:52:44.205Z,5.44
2019-03-10T00:55:11.777Z,5.34
2019-03-10T00:57:39.518Z,5.33
2019-03-10T01:00:14.301Z,5.34
2019-03-10T01:02:42.467Z,5.18
2019-03-10T01:05:10.034Z,5.09
2019-03-10T01:07:37.579Z,4.92
2019-03-10T01:10:06.043Z,4.99
2019-03-10T01:12:33.675Z,4.97
2019-03-10T01:15:01.330Z,4.79
2019-03-10T01:17:29.232Z,4.84
2019-03-10T01:19:57.001Z,4.70
2019-03-10T01:22:25.140Z,4.64
2019-03-10T01:24:52.748Z,4.59
2019-03-10T01:27:20.305Z,4.48
2019-03-10T01:29:47.921Z,4.49
2019-03-10T01:32:35.264Z,4.50
2019-03-10T01:35:15.309Z,4.62
2019-03-10T01:37:42.910Z,4.73
2019-03-10T01:40:10.668Z,4.75
2019-03-10T01:42:38.254Z,4.64
2019-03-10T01:45:06.778Z,4.62
2019-03-10T01:47:34.314Z,4.71
2019-03-10T01:50:01.921Z,4.56
2019-03-10T01:52:29.467Z,4.55
2019-03-10T01:54:57.106Z,4.49
2019-03-10T01:57:24.698Z,4.51
2019-03-10T01:59:52.338Z,4.61
2019-03-10T02:02:25.589Z,4.57
2019-03-10T02:04:50.539Z,4.60
2019-03-10T02:07:18.118Z,4.57
2019-03-10T02:09:45.729Z,4.63
2019-03-10T02:12:13.325Z,4.69
2019-03-10T02:14:40.888Z,4.63
2019-03-10T02:17:08.422Z,4.69
2019-03-10T02:19:35.964Z,4.63
2019-03-10T02:22:03.568Z,4.70
2019-03-10T02:24:31.107Z,4.77
2019-03-10T02:26:58.746Z,4.81
2019-03-10T02:29:27.300Z,4.79
2019-03-10T02:31:54.929Z,4.75
2019-03-10T02:34:22.491Z,4.63
2019-03-10T02:36:50.152Z,4.77
2019-03-10T02:39:17.663Z,4.64
2019-03-10T02:41:45.300Z,4.67
2019-03-10T02:44:12.879Z,4.75
2019-03-10T02:46:40.438Z,4.85
2019-03-10T02:49:08.000Z,4.67
2019-03-10T02:51:35.657Z,4.63
2019-03-10T02:54:03.220Z,4.61
2019-03-10T02:56:30.828Z,4.69
2019-03-10T02:58:58.383Z,4.68
2019-03-10T03:01:26.020Z,4.69
2019-03-10T03:03:53.599Z,4.64
2019-03-10T03:06:21.600Z,4.50
2019-03-10T03:08:49.177Z,4.48
2019-03-10T03:11:16.803Z,4.50
2019-03-10T03:13:44.337Z,4.38
2019-03-10T03:16:11.959Z,4.34
2019-03-10T03:18:39.547Z,4.41
2019-03-10T03:21:07.157Z,4.35
2019-03-10T03:23:34.707Z,4.30
2019-03-10T03:26:03.379Z,4.35
2019-03-10T03:28:30.923Z,4.44
2019-03-10T03:30:58.573Z,4.36
2019-03-10T03:33:26.169Z,4.24
2019-03-10T03:35:56.109Z,4.31
2019-03-10T03:38:27.055Z,4.26
2019-03-10T03:40:58.060Z,4.22
2019-03-10T03:43:25.759Z,4.16
2019-03-10T03:45:53.371Z,4.08
2019-03-10T03:48:20.989Z,4.08
2019-03-10T03:50:48.604Z,4.00
2019-03-10T03:53:16.142Z,4.03
2019-03-10T03:55:44.897Z,4.01
2019-03-10T03:58:12.441Z,4.05
2019-03-10T04:00:41.512Z,4.08
2019-03-10T04:03:09.320Z,4.07
2019-03-10T04:05:37.547Z,4.16
2019-03-10T04:08:05.455Z,4.16
2019-03-10T04:10:33.392Z,4.20
2019-03-10T04:13:01.114Z,4.23
2019-03-10T04:15:29.113Z,4.19
2019-03-10T04:17:56.900Z,4.08
2019-03-10T04:20:24.785Z,4.12
2019-03-10T04:22:52.913Z,4.11
2019-03-10T04:25:20.964Z,4.02
2019-03-10T04:27:49.169Z,3.93
2019-03-10T04:30:16.729Z,4.02
2019-03-10T04:32:44.382Z,3.94
2019-03-10T04:35:12.059Z,3.73
2019-03-10T04:37:39.665Z,3.90
2019-03-10T04:40:07.181Z,3.78
2019-03-10T04:42:34.810Z,3.44
2019-03-10T04:45:02.392Z,3.46
2019-03-10T04:47:30.009Z,3.60
2019-03-10T04:49:57.531Z,3.62
2019-03-10T04:52:25.106Z,3.74
2019-03-10T04:55:11.256Z,3.72
2019-03-10T04:57:55.797Z,3.71
2019-03-10T05:00:23.495Z,3.79
2019-03-10T05:02:51.082Z,3.75
2019-03-10T05:05:18.638Z,3.76
2019-03-10T05:07:46.208Z,3.74
2019-03-10T05:10:13.805Z,3.51
2019-03-10T05:12:41.401Z,3.56
2019-03-10T05:15:09.042Z,3.43
2019-03-10T05:17:36.580Z,3.46
2019-03-10T05:20:04.560Z,3.39
2019-03-10T05:22:32.220Z,3.38
2019-03-10T05:24:59.921Z,3.40
2019-03-10T05:27:27.534Z,3.40
2019-03-10T05:29:56.068Z,3.45
2019-03-10T05:32:23.731Z,3.41
2019-03-10T05:34:51.453Z,3.36
2019-03-10T05:37:19.129Z,3.39
2019-03-10T05:39:46.850Z,3.27
2019-03-10T05:42:14.503Z,3.30
2019-03-10T05:44:42.182Z,3.34
2019-03-10T05:47:09.996Z,3.38
2019-03-10T05:49:37.711Z,3.40
2019-03-10T05:52:05.958Z,3.37
2019-03-10T05:54:33.591Z,3.35
2019-03-10T05:57:01.251Z,3.39
2019-03-10T05:59:28.921Z,3.41
2019-03-10T06:01:56.555Z,3.45
2019-03-10T06:04:24.309Z,3.30
2019-03-10T06:06:51.968Z,3.47
2019-03-10T06:09:20.532Z,3.62
2019-03-10T06:11:48.153Z,3.78
2019-03-10T06:14:16.126Z,3.92
2019-03-10T06:16:44.335Z,4.03
2019-03-10T06:19:12.305Z,4.31
2019-03-10T06:21:40.598Z,4.62
2019-03-10T06:24:08.704Z,4.93
2019-03-10T06:26:36.737Z,5.20
2019-03-10T06:29:04.344Z,5.37
2019-03-10T06:31:33.053Z,5.48
2019-03-10T06:34:00.620Z,5.58
2019-03-10T06:36:28.252Z,5.71
2019-03-10T06:38:55.868Z,5.73
2019-03-10T06:41:23.498Z,5.81
2019-03-10T06:43:51.087Z,5.95
2019-03-10T06:46:18.869Z,6.03
2019-03-10T06:48:46.449Z,6.12
2019-03-10T06:51:14.056Z,6.19
2019-03-10T06:53:41.730Z,6.25
2019-03-10T06:56:09.343Z,6.41
2019-03-10T06:58:36.878Z,6.42
2019-03-10T07:01:04.500Z,6.66
2019-03-10T07:03:32.089Z,6.95
2019-03-10T07:05:59.673Z,7.31
2019-03-10T07:08:27.280Z,7.72
2019-03-10T07:10:54.965Z,8.09
2019-03-10T07:13:22.573Z,8.52
2019-03-10T07:15:51.222Z,8.98
2019-03-10T07:18:18.781Z,9.36
2019-03-10T07:20:46.432Z,9.84
2019-03-10T07:23:15.694Z,10.29
2019-03-10T07:25:43.360Z,10.71
2019-03-10T07:28:32.262Z,11.23
2019-03-10T07:31:12.336Z,11.76
2019-03-10T07:34:11.718Z,12.25
2019-03-10T07:36:58.881Z,12.58
2019-03-10T07:39:48.728Z,13.07
2019-03-10T07:42:25.047Z,13.48
2019-03-10T07:45:03.889Z,13.80
2019-03-10T07:47:41.284Z,14.11
2019-03-10T07:50:28.482Z,14.32
2019-03-10T07:53:30.746Z,14.51
2019-03-10T07:56:11.545Z,14.87
2019-03-10T07:58:57.207Z,15.15
2019-03-10T08:02:02.217Z,15.41
2019-03-10T08:04:47.761Z,15.64
2019-03-10T08:07:51.055Z,15.73
2019-03-10T08:10:44.570Z,15.67
2019-03-10T08:13:37.737Z,15.60
2019-03-10T08:16:42.694Z,15.66
2019-03-10T08:19:26.479Z,15.76
2019-03-10T08:22:25.723Z,16.01
2019-03-10T08:25:11.768Z,15.90
2019-03-10T08:28:02.175Z,15.61
2019-03-10T08:30:40.931Z,15.19
2019-03-10T08:33:33.749Z,14.92
2019-03-10T08:36:32.621Z,14.68
2019-03-10T08:39:34.695Z,14.51
2019-03-10T08:42:20.501Z,14.34
2019-03-10T08:45:05.520Z,14.61
2019-03-10T08:47:44.863Z,15.11
2019-03-10T08:50:32.079Z,15.78
2019-03-10T08:53:05.160Z,16.38
2019-03-10T08:55:39.622Z,16.95
2019-03-10T08:58:29.384Z,17.50
2019-03-10T09:01:34.823Z,17.73
2019-03-10T09:04:20.768Z,18.00
2019-03-10T09:07:10.424Z,18.15
2019-03-10T09:10:05.368Z,18.24
2019-03-10T09:12:48.373Z,18.08
2019-03-10T09:15:34.026Z,18.64
2019-03-10T09:18:27.156Z,18.54
2019-03-10T09:21:13.418Z,18.48
2019-03-10T09:24:06.407Z,18.53
2019-03-10T09:26:51.998Z,18.61
2019-03-10T09:29:43.712Z,18.82
2019-03-10T09:32:38.410Z,18.96
2019-03-10T09:35:13.437Z,19.03
2019-03-10T09:37:56.798Z,19.27
2019-03-10T09:40:46.422Z,19.62
2019-03-10T09:43:33.702Z,19.63
2019-03-10T09:46:20.751Z,19.75
2019-03-10T09:49:12.365Z,20.02
2019-03-10T09:51:46.706Z,19.94
2019-03-10T09:54:22.691Z,19.70
2019-03-10T09:57:09.896Z,20.00
2019-03-10T09:59:46.488Z,20.13
2019-03-10T10:02:32.143Z,20.02
2019-03-10T10:05:09.502Z,19.88
2019-03-10T10:07:53.798Z,20.16
2019-03-10T10:10:36.502Z,20.19
2019-03-10T10:13:23.669Z,20.63
2019-03-10T10:16:03.663Z,20.59
2019-03-10T10:18:44.673Z,19.81
2019-03-10T10:21:22.963Z,19.56
2019-03-10T10:24:08.426Z,19.65
2019-03-10T10:26:58.497Z,19.80
2019-03-10T10:29:48.665Z,20.22
2019-03-10T10:32:34.317Z,20.66
2019-03-10T10:35:12.542Z,21.01
2019-03-10T10:37:59.623Z,21.40
2019-03-10T10:40:46.814Z,21.70
2019-03-10T10:43:32.897Z,21.27
2019-03-10T10:46:11.470Z,21.51
2019-03-10T10:48:58.621Z,21.78
2019-03-10T10:51:45.794Z,21.81
2019-03-10T10:54:27.986Z,21.86
2019-03-10T10:57:13.505Z,21.73
2019-03-10T10:59:55.192Z,21.91
2019-03-10T11:02:54.521Z,22.35
2019-03-10T11:05:30.697Z,22.35
2019-03-10T11:08:23.675Z,21.80
2019-03-10T11:11:09.695Z,21.49
2019-03-10T11:13:57.407Z,22.23
2019-03-10T11:16:39.241Z,22.23
2019-03-10T11:19:24.067Z,22.09
2019-03-10T11:21:59.025Z,22.12
2019-03-10T11:24:46.410Z,22.00
2019-03-10T11:27:33.644Z,22.01
2019-03-10T11:30:35.974Z,22.05
2019-03-10T11:33:19.922Z,21.99
2019-03-10T11:36:05.443Z,21.54
2019-03-10T11:38:53.781Z,21.93
2019-03-10T11:41:43.683Z,22.29
2019-03-10T11:44:39.859Z,22.56
2019-03-10T11:47:32.644Z,21.95
2019-03-10T11:50:38.230Z,22.58
2019-03-10T11:53:19.046Z,22.84
2019-03-10T11:56:06.136Z,22.10
2019-03-10T11:58:53.286Z,22.12
2019-03-10T12:01:35.273Z,21.78
2019-03-10T12:04:22.555Z,21.45
2019-03-10T12:07:09.816Z,21.80
2019-03-10T12:09:37.538Z,22.26
2019-03-10T12:12:05.283Z,22.42
2019-03-10T12:14:32.984Z,21.95
2019-03-10T12:17:00.667Z,22.58
2019-03-10T12:19:28.339Z,23.15
2019-03-10T12:21:56.323Z,22.86
2019-03-10T12:24:24.286Z,22.37
2019-03-10T12:26:51.820Z,22.37
2019-03-10T12:29:19.412Z,21.80
2019-03-10T12:31:46.983Z,21.49
2019-03-10T12:34:14.625Z,21.79
2019-03-10T12:36:42.235Z,21.24
2019-03-10T12:39:11.562Z,20.89
2019-03-10T12:41:39.183Z,20.91
2019-03-10T12:44:07.161Z,20.76
2019-03-10T12:46:34.718Z,20.72
2019-03-10T12:49:02.419Z,20.51
2019-03-10T12:51:30.031Z,20.07
2019-03-10T12:53:57.644Z,20.22
2019-03-10T12:56:25.338Z,20.23
2019-03-10T12:58:53.116Z,20.40
2019-03-10T13:01:20.885Z,20.39
2019-03-10T13:03:58.400Z,20.51
2019-03-10T13:06:18.158Z,20.39
2019-03-10T13:08:45.762Z,20.77
2019-03-10T13:11:13.403Z,20.54
2019-03-10T13:13:40.994Z,21.03
2019-03-10T13:16:12.382Z,21.03
2019-03-10T13:18:40.073Z,20.19
2019-03-10T13:21:07.751Z,20.30
2019-03-10T13:23:35.275Z,20.73
2019-03-10T13:26:02.918Z,20.91
2019-03-10T13:28:30.525Z,20.92
2019-03-10T13:30:58.175Z,21.02
2019-03-10T13:33:25.844Z,20.90
2019-03-10T13:35:53.572Z,20.97
2019-03-10T13:38:21.176Z,20.92
2019-03-10T13:40:48.829Z,20.60
2019-03-10T13:43:16.366Z,20.77
2019-03-10T13:45:44.074Z,20.75
2019-03-10T13:48:11.659Z,20.30
2019-03-10T13:50:39.368Z,20.16
2019-03-10T13:53:06.973Z,20.06
2019-03-10T13:55:34.675Z,20.15
2019-03-10T13:58:02.303Z,20.32
2019-03-10T14:00:31.162Z,20.27
2019-03-10T14:02:58.770Z,19.99
2019-03-10T14:05:26.496Z,19.80
2019-03-10T14:07:54.246Z,19.64
2019-03-10T14:10:21.994Z,19.51
2019-03-10T14:12:50.014Z,19.41
2019-03-10T14:15:17.724Z,19.18
2019-03-10T14:17:45.471Z,18.98
2019-03-10T14:20:15.894Z,18.99
2019-03-10T14:22:43.603Z,19.44
2019-03-10T14:25:11.652Z,19.85
2019-03-10T14:27:39.308Z,19.84
2019-03-10T14:30:07.185Z,19.86
2019-03-10T14:32:34.913Z,19.94
2019-03-10T14:35:02.427Z,20.07
2019-03-10T14:37:30.112Z,20.10
2019-03-10T14:39:57.676Z,20.09
2019-03-10T14:42:25.369Z,19.54
2019-03-10T14:44:53.050Z,19.64
2019-03-10T14:47:23.541Z,19.47
2019-03-10T14:49:51.093Z,19.45
2019-03-10T14:52:26.933Z,19.32
2019-03-10T14:54:54.561Z,19.04
2019-03-10T14:57:22.106Z,18.92
2019-03-10T14:59:49.715Z,18.78
2019-03-10T15:02:17.339Z,18.58
2019-03-10T15:04:44.924Z,18.47
2019-03-10T15:07:13.523Z,18.38
2019-03-10T15:09:41.089Z,18.24
2019-03-10T15:12:08.654Z,18.26
2019-03-10T15:14:36.262Z,18.23
2019-03-10T15:17:03.824Z,18.28
2019-03-10T15:19:32.495Z,18.41
2019-03-10T15:22:00.170Z,18.39
2019-03-10T15:24:27.777Z,18.44
2019-03-10T15:26:55.399Z,18.47
2019-03-10T15:29:23.041Z,18.49
2019-03-10T15:31:50.702Z,18.55
2019-03-10T15:34:18.340Z,18.52
2019-03-10T15:36:45.966Z,18.55
2019-03-10T15:39:13.588Z,18.60
2019-03-10T15:41:41.201Z,18.44
2019-03-10T15:44:08.788Z,18.24
2019-03-10T15:46:36.475Z,18.02
2019-03-10T15:49:04.075Z,17.98
2019-03-10T15:51:31.606Z,17.97
2019-03-10T15:53:59.173Z,18.10
2019-03-10T15:56:27.855Z,18.19
2019-03-10T15:58:55.443Z,18.18
2019-03-10T16:01:23.053Z,18.24
2019-03-10T16:03:51.012Z,18.19
2019-03-10T16:06:18.711Z,18.16
2019-03-10T16:08:46.329Z,18.12
2019-03-10T16:11:13.972Z,18.03
2019-03-10T16:13:41.584Z,17.91
2019-03-10T16:16:09.194Z,17.58
2019-03-10T16:18:36.801Z,17.54
2019-03-10T16:21:05.510Z,17.54
2019-03-10T16:23:33.140Z,17.36
2019-03-10T16:26:00.924Z,17.30
2019-03-10T16:28:28.614Z,17.17
2019-03-10T16:30:56.354Z,17.05
2019-03-10T16:33:25.462Z,17.03
2019-03-10T16:35:53.480Z,16.89
2019-03-10T16:38:21.195Z,16.56
2019-03-10T16:40:48.897Z,16.47
2019-03-10T16:43:18.397Z,16.36
2019-03-10T16:45:46.046Z,16.27
2019-03-10T16:48:13.748Z,16.05
2019-03-10T16:50:41.472Z,15.95
2019-03-10T16:53:09.150Z,15.89
2019-03-10T16:55:36.799Z,15.65
2019-03-10T16:58:04.486Z,15.48
2019-03-10T17:00:32.197Z,15.42
2019-03-10T17:02:59.971Z,15.41
2019-03-10T17:05:27.709Z,15.43
2019-03-10T17:07:55.439Z,15.33
2019-03-10T17:10:23.140Z,15.32
2019-03-10T17:12:50.768Z,15.30
2019-03-10T17:15:18.516Z,15.20
2019-03-10T17:17:46.193Z,15.00
2019-03-10T17:20:14.525Z,14.94
2019-03-10T17:22:42.207Z,15.18
2019-03-10T17:25:10.319Z,15.27
2019-03-10T17:27:37.971Z,15.23
2019-03-10T17:30:07.433Z,15.24
2019-03-10T17:32:37.224Z,15.26
2019-03-10T17:35:04.754Z,15.26
2019-03-10T17:37:34.106Z,15.25
2019-03-10T17:40:01.691Z,15.23
2019-03-10T17:42:30.425Z,15.26
2019-03-10T17:44:58.072Z,15.26
2019-03-10T17:47:26.920Z,15.05
2019-03-10T17:49:54.571Z,14.96
2019-03-10T17:52:22.229Z,14.83
2019-03-10T17:54:49.830Z,14.79
2019-03-10T17:57:17.585Z,14.53
2019-03-10T17:59:45.587Z,14.73
2019-03-10T18:02:13.501Z,14.81
2019-03-10T18:04:41.225Z,14.81
2019-03-10T18:07:08.927Z,14.66
2019-03-10T18:09:36.590Z,14.81
2019-03-10T18:12:04.361Z,14.62
2019-03-10T18:14:32.116Z,14.62
2019-03-10T18:16:59.910Z,14.50
2019-03-10T18:19:27.769Z,14.62
2019-03-10T18:21:55.509Z,14.56
2019-03-10T18:24:23.599Z,14.58
2019-03-10T18:26:53.818Z,14.53
2019-03-10T18:29:22.769Z,14.38
2019-03-10T18:31:50.448Z,14.33
2019-03-10T18:34:18.193Z,14.26
2019-03-10T18:36:45.830Z,14.21
2019-03-10T18:39:13.541Z,14.18
2019-03-10T18:41:41.140Z,14.05
2019-03-10T18:44:09.056Z,14.05
2019-03-10T18:46:36.654Z,14.09
2019-03-10T18:49:04.408Z,14.06
2019-03-10T18:51:32.035Z,14.13
2019-03-10T18:53:59.793Z,14.11
2019-03-10T18:56:27.477Z,14.20
2019-03-10T18:58:55.186Z,14.15
2019-03-10T19:01:22.811Z,14.12
2019-03-10T19:03:50.522Z,14.05
2019-03-10T19:06:18.081Z,13.99
2019-03-10T19:08:46.175Z,14.07
2019-03-10T19:11:13.810Z,14.02
2019-03-10T19:13:41.600Z,14.06
2019-03-10T19:16:09.304Z,14.08
2019-03-10T19:18:37.005Z,14.04
2019-03-10T19:21:04.719Z,14.08
2019-03-10T19:23:32.432Z,14.14
2019-03-10T19:26:00.235Z,14.14
2019-03-10T19:28:27.985Z,14.06
2019-03-10T19:30:55.757Z,13.98
2019-03-10T19:33:23.434Z,13.91
2019-03-10T19:35:51.209Z,13.85
2019-03-10T19:38:19.268Z,13.81
2019-03-10T19:40:46.960Z,13.89
2019-03-10T19:43:14.718Z,13.95
2019-03-10T19:45:43.802Z,13.92
2019-03-10T19:48:11.463Z,13.88
2019-03-10T19:50:39.128Z,13.84
2019-03-10T19:53:07.808Z,13.90
2019-03-10T19:55:35.726Z,13.90
2019-03-10T19:58:04.451Z,13.83
2019-03-10T20:00:32.298Z,13.79
2019-03-10T20:02:59.815Z,13.68
2019-03-10T20:05:27.445Z,13.48
2019-03-10T20:07:55.004Z,13.31
2019-03-10T20:10:22.643Z,13.26
2019-03-10T20:12:51.448Z,13.21
2019-03-10T20:15:19.099Z,13.07
2019-03-10T20:17:46.667Z,13.02
2019-03-10T20:20:15.368Z,13.00
2019-03-10T20:22:42.942Z,12.95
2019-03-10T20:25:10.785Z,12.93
2019-03-10T20:27:38.407Z,12.88
2019-03-10T20:30:07.142Z,12.86
2019-03-10T20:32:34.747Z,12.80
2019-03-10T20:35:02.374Z,12.72
2019-03-10T20:37:31.039Z,12.69
2019-03-10T20:39:58.633Z,12.66
2019-03-10T20:42:26.285Z,12.67
2019-03-10T20:44:53.924Z,12.56
2019-03-10T20:47:21.572Z,12.53
2019-03-10T20:49:49.198Z,12.52
2019-03-10T20:52:16.760Z,12.53
2019-03-10T20:54:44.463Z,12.54
2019-03-10T20:57:12.070Z,12.48
2019-03-10T20:59:39.792Z,12.33
2019-03-10T21:02:07.351Z,12.27
2019-03-10T21:04:34.976Z,12.24
2019-03-10T21:07:02.512Z,12.26
2019-03-10T21:09:30.082Z,12.29
2019-03-10T21:11:57.609Z,12.21
2019-03-10T21:14:25.197Z,12.09
2019-03-10T21:16:52.756Z,12.00
2019-03-10T21:19:20.460Z,11.79
2019-03-10T21:21:48.277Z,11.73
2019-03-10T21:24:15.949Z,11.59
2019-03-10T21:26:43.661Z,11.67
2019-03-10T21:29:11.371Z,11.66
2019-03-10T21:31:39.003Z,11.46
2019-03-10T21:34:06.779Z,11.41
2019-03-10T21:36:34.662Z,11.47
2019-03-10T21:39:02.346Z,11.54
2019-03-10T21:41:31.752Z,11.60
2019-03-10T21:43:59.394Z,11.45
2019-03-10T21:46:27.183Z,11.40
2019-03-10T21:48:54.708Z,11.43
2019-03-10T21:51:22.379Z,11.43
2019-03-10T21:53:52.541Z,11.47
2019-03-10T21:56:20.228Z,11.40
2019-03-10T21:58:47.764Z,11.18
2019-03-10T22:01:15.430Z,11.11
2019-03-10T22:03:43.034Z,11.04
2019-03-10T22:06:10.700Z,10.99
2019-03-10T22:08:38.292Z,10.94
2019-03-10T22:11:05.945Z,10.91
2019-03-10T22:13:33.538Z,10.97
2019-03-10T22:16:01.149Z,10.96
2019-03-10T22:18:28.722Z,11.09
2019-03-10T22:20:56.680Z,11.12
2019-03-10T22:23:24.273Z,11.12
2019-03-10T22:25:51.957Z,11.19
2019-03-10T22:28:19.678Z,11.34
2019-03-10T22:30:47.310Z,11.40
2019-03-10T22:33:16.150Z,11.51
2019-03-10T22:35:43.856Z,11.57
2019-03-10T22:38:12.565Z,11.68
2019-03-10T22:40:42.118Z,11.75
2019-03-10T22:43:09.799Z,11.71
2019-03-10T22:45:39.166Z,11.79
2019-03-10T22:48:06.763Z,11.71
2019-03-10T22:50:34.321Z,11.74
2019-03-10T22:53:01.970Z,11.78
2019-03-10T22:55:29.521Z,11.70
2019-03-10T22:57:57.210Z,11.63
2019-03-10T23:00:29.672Z,11.55
2019-03-10T23:02:59.117Z,11.47
2019-03-10T23:05:26.712Z,11.36
2019-03-10T23:07:54.290Z,11.32
2019-03-10T23:10:21.888Z,11.28
2019-03-10T23:12:49.495Z,11.28
2019-03-10T23:15:17.146Z,11.33
2019-03-10T23:17:44.701Z,11.27
2019-03-10T23:20:12.401Z,11.27
2019-03-10T23:22:41.024Z,11.25
2019-03-10T23:25:09.023Z,11.25
2019-03-10T23:27:36.668Z,11.44
2019-03-10T23:30:06.526Z,11.24
2019-03-10T23:32:34.154Z,11.22
2019-03-10T23:35:01.763Z,11.28
2019-03-10T23:37:29.333Z,11.16
2019-03-10T23:39:56.953Z,11.09
2019-03-10T23:42:24.510Z,11.20
2019-03-10T23:44:52.469Z,11.12
2019-03-10T23:47:20.011Z,11.34
2019-03-10T23:49:47.603Z,11.48
2019-03-10T23:52:15.126Z,11.68
2019-03-10T23:54:43.764Z,11.70
2019-03-10T23:57:11.326Z,11.60
2019-03-10T23:59:38.989Z,11.64
